Time;durP1;ratioP1;P1;durP2;ratioP2;P2;SDS_P1;SDS_P2;PMS_P1;PMS_P2;Temp;Humidity;BMP_temperature;BMP_pressure;BME280_temperature;BME280_humidity;BME280_pressure;Samples;Min_cycle;Max_cycle;Signal;HPM_P1;HPM_P2
2022/05/22 00:00:49;;;;;;;7.87;3.20;;;;;;;14.53;100.00;99301.06;5052055;28;20197;-84
2022/05/22 00:03:19;;;;;;;4.97;3.10;;;;;;;14.69;100.00;99296.25;5057189;28;20200;-85
2022/05/22 00:05:47;;;;;;;5.13;2.83;;;;;;;14.60;100.00;99283.63;5054067;28;20223;-85
2022/05/22 00:08:16;;;;;;;3.67;2.87;;;;;;;14.69;100.00;99290.06;5050863;28;20212;-86
2022/05/22 00:10:46;;;;;;;5.73;3.23;;;;;;;14.72;100.00;99295.16;5050424;28;20212;-85
2022/05/22 00:13:16;;;;;;;8.07;3.30;;;;;;;14.69;100.00;99295.41;5053192;28;20281;-84
2022/05/22 00:18:27;;;;;;;3.97;3.00;;;;;;;14.50;100.00;99288.84;5055074;28;20196;-85
2022/05/22 00:20:56;;;;;;;5.80;2.90;;;;;;;14.23;100.00;99289.13;5056701;28;20205;-85
2022/05/22 00:23:28;;;;;;;7.00;3.00;;;;;;;14.18;100.00;99290.44;5054857;28;20275;-85
2022/05/22 00:25:57;;;;;;;4.20;2.53;;;;;;;13.97;100.00;99295.59;5052763;28;20304;-85
2022/05/22 00:28:25;;;;;;;5.60;3.00;;;;;;;13.86;100.00;99298.22;5050932;28;20239;-86
2022/05/22 00:30:54;;;;;;;7.07;3.30;;;;;;;13.95;100.00;99300.19;5053246;28;20275;-85
2022/05/22 00:33:22;;;;;;;7.50;3.47;;;;;;;13.83;100.00;99303.78;5050828;28;20651;-85
2022/05/22 00:35:52;;;;;;;11.30;3.60;;;;;;;13.72;100.00;99300.09;5048292;28;20196;-85
2022/05/22 00:38:20;;;;;;;7.13;3.50;;;;;;;13.73;100.00;99299.16;5054510;28;20205;-85
2022/05/22 00:40:49;;;;;;;4.40;3.10;;;;;;;13.72;100.00;99299.25;5049418;28;20193;-84
2022/05/22 00:43:28;;;;;;;5.97;3.10;;;;;;;13.60;100.00;99316.97;5045505;28;20193;-85
2022/05/22 00:45:57;;;;;;;6.07;3.37;;;;;;;13.58;100.00;99308.25;5044078;28;20639;-85
2022/05/22 00:48:27;;;;;;;4.53;3.20;;;;;;;13.67;100.00;99310.25;5053218;28;20331;-85
2022/05/22 00:51:02;;;;;;;5.93;3.27;;;;;;;13.50;100.00;99299.13;5052849;28;20205;-86
2022/05/22 00:53:33;;;;;;;5.63;3.47;;;;;;;13.55;100.00;99305.84;5053863;28;20197;-85
2022/05/22 00:56:06;;;;;;;9.83;3.63;;;;;;;13.39;100.00;99310.56;5051200;28;20271;-85
2022/05/22 00:58:39;;;;;;;6.47;3.57;;;;;;;13.41;100.00;99316.63;5047089;28;20205;-85
2022/05/22 01:01:07;;;;;;;5.17;3.30;;;;;;;13.36;100.00;99319.63;5051979;28;20204;-85
2022/05/22 01:03:36;;;;;;;6.60;3.60;;;;;;;13.50;100.00;99313.28;5051357;28;20201;-85
2022/05/22 01:06:08;;;;;;;6.60;3.50;;;;;;;13.46;100.00;99306.50;5054753;28;20217;-85
2022/05/22 01:08:39;;;;;;;4.27;3.17;;;;;;;13.57;100.00;99311.03;5053935;28;20193;-85
2022/05/22 01:11:11;;;;;;;6.57;3.07;;;;;;;13.62;100.00;99299.09;5055277;28;20200;-85
2022/05/22 01:13:43;;;;;;;3.83;2.93;;;;;;;13.68;100.00;99295.13;5048787;28;20216;-85
2022/05/22 01:16:12;;;;;;;8.27;3.63;;;;;;;13.71;100.00;99294.91;5051115;28;20195;-85
2022/05/22 01:18:45;;;;;;;3.70;3.20;;;;;;;13.78;100.00;99293.47;5051669;28;20719;-85
2022/05/22 01:21:19;;;;;;;3.87;3.20;;;;;;;13.65;100.00;99296.19;5049917;28;20568;-86
2022/05/22 01:23:50;;;;;;;5.37;3.20;;;;;;;13.76;100.00;99290.06;5051628;28;20208;-85
2022/05/22 01:26:18;;;;;;;6.23;3.50;;;;;;;13.86;100.00;99284.91;5055354;28;20201;-85
2022/05/22 01:28:48;;;;;;;5.13;3.00;;;;;;;13.85;100.00;99280.53;5050511;28;20225;-85
2022/05/22 01:31:16;;;;;;;4.00;3.07;;;;;;;13.78;100.00;99281.97;5050565;28;20205;-85
2022/05/22 01:33:45;;;;;;;10.63;3.67;;;;;;;13.73;100.00;99277.00;5050733;28;20217;-85
2022/05/22 01:36:16;;;;;;;4.90;3.03;;;;;;;13.80;100.00;99275.59;5047201;28;20205;-85
2022/05/22 01:38:45;;;;;;;6.27;3.60;;;;;;;13.83;100.00;99272.69;5053911;28;20208;-85
2022/05/22 01:41:15;;;;;;;6.03;3.00;;;;;;;13.64;100.00;99275.88;5055334;28;20635;-84
2022/05/22 01:43:44;;;;;;;6.47;3.27;;;;;;;13.49;100.00;99269.00;5051939;28;20189;-85
2022/05/22 01:46:12;;;;;;;6.23;3.00;;;;;;;13.59;100.00;99269.19;5052069;28;20221;-85
2022/05/22 01:48:43;;;;;;;7.07;3.03;;;;;;;13.58;100.00;99278.13;5051642;28;20213;-85
2022/05/22 01:51:12;;;;;;;4.23;2.97;;;;;;;13.52;100.00;99281.28;5051949;28;20281;-85
2022/05/22 01:53:41;;;;;;;4.93;3.07;;;;;;;13.67;100.00;99262.31;5053620;28;20224;-85
2022/05/22 01:56:09;;;;;;;8.10;3.57;;;;;;;13.62;100.00;99263.66;5045318;28;20212;-85
2022/05/22 01:58:39;;;;;;;7.00;3.30;;;;;;;13.70;100.00;99251.47;5047526;28;20212;-85
2022/05/22 02:01:08;;;;;;;7.07;3.30;;;;;;;13.64;100.00;99243.09;5052843;28;20276;-85
2022/05/22 02:03:38;;;;;;;5.73;3.60;;;;;;;13.67;100.00;99251.69;5053236;28;20196;-85
2022/05/22 02:06:06;;;;;;;9.00;3.40;;;;;;;13.62;100.00;99256.50;5055124;28;20652;-85
2022/05/22 02:08:33;;;;;;;6.40;3.23;;;;;;;13.60;100.00;99263.75;5052998;28;20684;-85
2022/05/22 02:11:04;;;;;;;4.73;3.40;;;;;;;13.43;100.00;99273.00;5052680;28;20196;-85
2022/05/22 02:13:38;;;;;;;5.63;3.40;;;;;;;13.65;100.00;99269.59;5058299;28;20193;-84
2022/05/22 02:16:07;;;;;;;5.53;3.20;;;;;;;13.74;100.00;99273.38;5058518;28;20227;-85
2022/05/22 02:18:36;;;;;;;5.53;3.50;;;;;;;13.61;100.00;99272.59;5050717;28;20676;-85
2022/05/22 02:21:04;;;;;;;6.20;3.50;;;;;;;13.51;100.00;99264.47;5048493;28;20252;-86
2022/05/22 02:23:34;;;;;;;6.73;3.63;;;;;;;13.42;100.00;99273.13;5051663;28;20196;-86
2022/05/22 02:26:04;;;;;;;4.67;3.30;;;;;;;13.42;100.00;99276.63;5054350;28;20204;-85
2022/05/22 02:28:32;;;;;;;7.47;3.37;;;;;;;13.39;100.00;99271.50;5050942;28;20237;-85
2022/05/22 02:31:02;;;;;;;7.07;3.80;;;;;;;13.38;100.00;99268.97;5050726;28;20272;-86
2022/05/22 02:33:32;;;;;;;7.37;3.77;;;;;;;13.43;100.00;99265.00;5058158;28;20186;-86
2022/05/22 02:36:03;;;;;;;6.07;3.87;;;;;;;13.34;100.00;99255.06;5058053;28;20208;-85
2022/05/22 02:38:32;;;;;;;8.70;3.80;;;;;;;13.26;100.00;99252.09;5056933;28;20262;-84
2022/05/22 02:41:00;;;;;;;5.83;3.67;;;;;;;13.20;100.00;99259.69;5054851;28;20208;-85
2022/05/22 02:43:29;;;;;;;7.00;3.77;;;;;;;13.14;100.00;99260.97;5056492;28;20200;-85
2022/05/22 02:45:59;;;;;;;8.13;3.70;;;;;;;13.28;100.00;99252.84;5058272;28;20212;-85
2022/05/22 02:48:28;;;;;;;7.90;4.10;;;;;;;13.32;100.00;99254.31;5053508;28;20216;-85
2022/05/22 02:50:59;;;;;;;5.27;3.70;;;;;;;13.28;100.00;99262.63;5011967;28;20194;-85
2022/05/22 02:53:28;;;;;;;5.00;3.27;;;;;;;13.20;100.00;99254.34;5008595;28;20213;-85
2022/05/22 02:56:07;;;;;;;4.50;3.47;;;;;;;12.94;100.00;99250.91;5011041;28;20206;-85
2022/05/22 02:58:36;;;;;;;6.23;3.40;;;;;;;12.90;100.00;99252.94;5010075;28;20202;-86
2022/05/22 03:01:06;;;;;;;3.50;3.20;;;;;;;13.13;100.00;99251.28;5030691;28;20199;-85
2022/05/22 03:03:35;;;;;;;5.13;3.53;;;;;;;12.98;100.00;99247.91;5013255;28;20187;-85
2022/05/22 03:08:51;;;;;;;4.10;3.30;;;;;;;12.98;100.00;99258.56;5012420;28;20226;-85
2022/05/22 03:11:20;;;;;;;5.37;3.90;;;;;;;12.61;100.00;99261.16;5010473;28;20206;-86
2022/05/22 03:13:49;;;;;;;7.17;4.40;;;;;;;12.81;100.00;99264.22;5011973;28;20205;-85
2022/05/22 03:16:18;;;;;;;6.90;4.00;;;;;;;12.76;100.00;99261.91;5043253;28;20208;-85
2022/05/22 03:18:46;;;;;;;8.03;4.20;;;;;;;12.75;100.00;99249.59;5056501;28;20205;-85
2022/05/22 03:21:16;;;;;;;7.73;3.40;;;;;;;12.96;100.00;99241.03;5046394;28;20197;-85
2022/05/22 03:23:45;;;;;;;4.87;3.57;;;;;;;13.15;100.00;99250.19;5049204;28;20284;-85
2022/05/22 03:26:14;;;;;;;6.83;4.13;;;;;;;13.10;100.00;99240.84;5051060;28;20200;-85
2022/05/22 03:28:43;;;;;;;4.47;3.60;;;;;;;13.22;100.00;99239.13;5053152;28;20221;-85
2022/05/22 03:31:11;;;;;;;6.70;3.70;;;;;;;13.33;100.00;99236.56;5057059;28;20208;-85
2022/05/22 03:33:40;;;;;;;5.10;4.20;;;;;;;13.26;100.00;99244.13;5054722;28;20251;-85
2022/05/22 03:36:08;;;;;;;6.43;3.50;;;;;;;13.28;100.00;99246.66;5051559;28;20197;-85
2022/05/22 03:38:38;;;;;;;5.67;3.67;;;;;;;13.18;100.00;99239.31;5054284;28;20208;-86
2022/05/22 03:41:08;;;;;;;5.13;3.93;;;;;;;13.23;100.00;99240.84;5053865;28;20216;-85
2022/05/22 03:43:36;;;;;;;4.97;3.70;;;;;;;13.10;100.00;99246.16;5052962;28;20220;-85
2022/05/22 03:46:05;;;;;;;4.73;3.90;;;;;;;13.06;100.00;99242.88;5056554;28;20200;-85
2022/05/22 03:48:33;;;;;;;7.93;3.90;;;;;;;13.09;100.00;99237.34;5053138;28;20221;-85
2022/05/22 03:51:02;;;;;;;6.80;3.67;;;;;;;13.03;100.00;99237.81;5043855;28;20209;-86
2022/05/22 03:53:30;;;;;;;5.23;3.83;;;;;;;12.92;100.00;99227.06;5048934;28;20632;-86
2022/05/22 03:56:08;;;;;;;4.70;3.40;;;;;;;12.95;100.00;99226.88;5056817;28;20228;-86
2022/05/22 03:58:36;;;;;;;8.27;3.90;;;;;;;12.94;100.00;99225.19;5050711;28;20193;-86
2022/05/22 04:01:07;;;;;;;4.93;3.57;;;;;;;12.89;100.00;99219.34;5048526;28;20201;-85
2022/05/22 04:03:39;;;;;;;5.13;3.57;;;;;;;12.80;100.00;99218.19;5051431;28;20195;-85
2022/05/22 04:06:09;;;;;;;5.73;3.63;;;;;;;12.86;100.00;99211.59;5052205;28;20213;-85
2022/05/22 04:08:38;;;;;;;6.33;3.87;;;;;;;12.76;100.00;99213.22;5050690;28;20228;-85
2022/05/22 04:11:11;;;;;;;4.57;3.77;;;;;;;12.80;100.00;99210.22;5049094;28;20195;-85
2022/05/22 04:13:40;;;;;;;6.00;3.77;;;;;;;12.86;100.00;99216.91;5049707;28;20204;-85
2022/05/22 04:16:08;;;;;;;6.37;3.90;;;;;;;12.76;100.00;99214.06;5051560;28;20205;-86
2022/05/22 04:18:37;;;;;;;10.50;4.20;;;;;;;12.94;100.00;99224.34;5049030;28;20351;-85
2022/05/22 04:21:06;;;;;;;6.73;3.70;;;;;;;12.70;100.00;99218.97;5053394;28;20185;-85
2022/05/22 04:26:22;;;;;;;4.40;4.00;;;;;;;12.81;100.00;99211.91;5055601;28;20201;-86
2022/05/22 04:28:50;;;;;;;6.53;4.07;;;;;;;12.83;100.00;99220.63;5051155;28;20229;-85
2022/05/22 04:31:19;;;;;;;6.77;4.10;;;;;;;12.92;100.00;99219.09;5054596;28;20200;-85
2022/05/22 04:33:50;;;;;;;6.43;4.07;;;;;;;12.90;100.00;99221.88;5048099;28;20216;-85
2022/05/22 04:36:19;;;;;;;7.10;4.20;;;;;;;12.87;100.00;99213.28;5045731;28;20200;-86
2022/05/22 04:38:47;;;;;;;6.27;4.13;;;;;;;12.97;100.00;99216.97;5055763;28;20204;-85
2022/05/22 04:41:17;;;;;;;7.73;4.10;;;;;;;12.98;100.00;99209.84;5055277;28;20200;-84
2022/05/22 04:43:47;;;;;;;8.80;4.13;;;;;;;13.14;100.00;99216.59;5049759;28;20193;-85
2022/05/22 04:46:15;;;;;;;6.67;4.30;;;;;;;13.13;100.00;99216.72;5052678;28;20208;-85
2022/05/22 04:48:49;;;;;;;6.87;3.93;;;;;;;13.00;100.00;99223.88;5055321;28;20304;-85
2022/05/22 04:51:19;;;;;;;8.40;4.33;;;;;;;13.06;100.00;99218.13;5049263;28;20280;-85
2022/05/22 04:53:47;;;;;;;6.23;3.80;;;;;;;13.14;100.00;99224.56;5050021;28;20189;-85
2022/05/22 04:56:15;;;;;;;6.57;4.27;;;;;;;13.13;100.00;99222.88;5047168;28;20648;-85
2022/05/22 04:58:44;;;;;;;3.90;3.40;;;;;;;13.27;100.00;99224.53;5049724;28;20205;-85
2022/05/22 05:01:15;;;;;;;4.70;4.20;;;;;;;13.27;100.00;99224.53;5047758;28;20205;-85
2022/05/22 05:03:44;;;;;;;6.03;4.10;;;;;;;13.31;100.00;99209.19;5053948;28;20197;-85
2022/05/22 05:06:12;;;;;;;7.90;4.30;;;;;;;13.26;100.00;99206.88;5046581;28;20275;-84
2022/05/22 05:08:40;;;;;;;6.90;4.30;;;;;;;13.36;100.00;99213.22;5052031;28;20229;-85
2022/05/22 05:11:11;;;;;;;6.23;4.23;;;;;;;13.53;100.00;99211.13;5055268;28;20277;-84
2022/05/22 05:13:41;;;;;;;7.90;4.17;;;;;;;13.44;100.00;99208.16;5054792;28;20680;-85
2022/05/22 05:16:11;;;;;;;5.73;4.00;;;;;;;13.70;100.00;99203.56;5048495;28;20645;-85
2022/05/22 05:18:42;;;;;;;5.90;4.30;;;;;;;13.81;100.00;99208.06;5020483;28;20197;-85
2022/05/22 05:21:15;;;;;;;6.10;3.97;;;;;;;13.87;100.00;99207.56;5055002;28;20189;-85
2022/05/22 05:23:44;;;;;;;6.87;3.80;;;;;;;13.80;100.00;99201.03;5051702;28;20196;-85
2022/05/22 05:26:12;;;;;;;5.63;3.93;;;;;;;13.84;100.00;99189.16;5051043;28;20709;-85
2022/05/22 05:28:41;;;;;;;4.83;4.03;;;;;;;13.98;100.00;99198.75;5054108;28;20228;-85
2022/05/22 05:31:09;;;;;;;7.53;3.97;;;;;;;14.04;100.00;99198.28;5048304;28;20201;-85
2022/05/22 05:33:38;;;;;;;8.77;4.27;;;;;;;13.90;100.00;99198.53;5048026;28;20201;-85
2022/05/22 05:36:11;;;;;;;5.00;4.50;;;;;;;14.14;100.00;99193.94;5054831;28;20193;-84
2022/05/22 05:38:40;;;;;;;9.00;3.90;;;;;;;14.28;100.00;99196.38;5059942;28;20200;-84
2022/05/22 05:41:26;;;;;;;5.13;3.80;;;;;;;14.42;100.00;99192.63;5056100;28;20204;-84
2022/05/22 05:43:55;;;;;;;7.60;4.37;;;;;;;14.50;100.00;99194.72;5064294;28;20224;-85
2022/05/22 05:46:23;;;;;;;7.33;4.53;;;;;;;14.49;100.00;99193.03;5065278;28;20197;-85
2022/05/22 05:48:51;;;;;;;7.60;3.90;;;;;;;14.58;100.00;99192.28;5062936;28;20266;-85
2022/05/22 05:51:21;;;;;;;8.37;4.23;;;;;;;14.38;100.00;99187.63;5057384;28;20208;-85
2022/05/22 05:53:49;;;;;;;6.77;4.47;;;;;;;14.57;100.00;99186.09;5014913;28;20220;-85
2022/05/22 05:56:18;;;;;;;7.93;4.40;;;;;;;14.72;100.00;99183.16;5054571;28;20207;-87
2022/05/22 05:58:53;;;;;;;6.00;4.20;;;;;;;14.91;100.00;99178.03;5058872;28;20219;-85
2022/05/22 06:01:24;;;;;;;6.93;4.07;;;;;;;15.08;100.00;99174.84;5059559;28;20220;-85
2022/05/22 06:03:53;;;;;;;6.47;4.47;;;;;;;14.87;100.00;99177.44;5060529;28;20185;-86
2022/05/22 06:06:23;;;;;;;7.53;4.57;;;;;;;15.03;100.00;99179.69;5054576;28;20209;-86
2022/05/22 06:08:52;;;;;;;7.97;4.40;;;;;;;14.90;100.00;99176.34;5055238;28;20251;-86
2022/05/22 06:11:21;;;;;;;5.43;4.43;;;;;;;15.11;100.00;99174.56;5060231;28;20196;-85
2022/05/22 06:13:55;;;;;;;7.73;4.53;;;;;;;15.01;100.00;99172.78;5061050;28;20207;-85
2022/05/22 06:16:23;;;;;;;7.53;4.50;;;;;;;15.37;100.00;99172.44;5056057;28;20223;-86
2022/05/22 06:18:51;;;;;;;8.80;4.17;;;;;;;15.63;100.00;99164.06;5051389;28;20272;-86
2022/05/22 06:21:24;;;;;;;7.00;4.17;;;;;;;15.78;100.00;99170.78;5045359;28;20618;-86
2022/05/22 06:23:52;;;;;;;6.10;4.13;;;;;;;15.94;100.00;99168.50;5050402;28;20204;-86
2022/05/22 06:26:21;;;;;;;10.07;4.73;;;;;;;15.98;100.00;99167.25;5054339;28;20624;-86
2022/05/22 06:28:49;;;;;;;8.10;5.03;;;;;;;15.98;100.00;99159.22;5051676;28;20252;-86
2022/05/22 06:31:17;;;;;;;9.23;5.43;;;;;;;15.79;100.00;99159.13;5042331;28;20197;-85
2022/05/22 06:33:46;;;;;;;7.83;4.97;;;;;;;16.12;100.00;99157.22;5059733;28;20193;-86
2022/05/22 06:36:16;;;;;;;6.83;4.73;;;;;;;16.32;100.00;99153.63;5055308;28;20189;-86
2022/05/22 06:41:33;;;;;;;7.93;4.60;;;;;;;16.56;100.00;99137.25;5056550;28;20189;-86
2022/05/22 06:44:02;;;;;;;8.97;4.87;;;;;;;16.65;100.00;99138.25;5050632;28;20206;-85
2022/05/22 06:46:33;;;;;;;9.97;5.23;;;;;;;16.82;100.00;99138.47;5049924;28;20200;-85
2022/05/22 06:49:03;;;;;;;9.67;5.10;;;;;;;16.92;100.00;99130.44;5051518;28;20648;-85
2022/05/22 06:51:34;;;;;;;11.57;4.90;;;;;;;17.01;100.00;99137.66;5053657;28;20583;-85
2022/05/22 06:54:04;;;;;;;9.77;4.90;;;;;;;16.91;100.00;99134.13;5054724;28;20235;-85
2022/05/22 06:56:32;;;;;;;8.37;4.97;;;;;;;17.07;100.00;99133.53;5057714;28;20189;-84
2022/05/22 06:59:01;;;;;;;7.60;4.27;;;;;;;17.32;100.00;99135.69;5054929;28;20193;-85
2022/05/22 07:01:30;;;;;;;9.67;5.00;;;;;;;17.23;100.00;99146.38;5054363;28;20280;-85
2022/05/22 07:03:58;;;;;;;9.00;4.30;;;;;;;17.31;100.00;99135.81;5056968;28;20200;-83
2022/05/22 07:06:26;;;;;;;11.27;4.70;;;;;;;17.39;100.00;99138.63;5052227;28;20387;-85
2022/05/22 07:08:56;;;;;;;12.23;5.00;;;;;;;17.26;100.00;99136.22;5056939;28;20728;-85
2022/05/22 07:11:41;;;;;;;9.23;5.80;;;;;;;17.46;100.00;99145.94;5048024;28;20244;-86
2022/05/22 07:14:14;;;;;;;11.33;5.23;;;;;;;17.54;100.00;99142.56;4956172;29;20200;-85
2022/05/22 07:16:43;;;;;;;8.50;4.53;;;;;;;17.49;100.00;99150.19;4951491;29;20271;-83
2022/05/22 07:19:14;;;;;;;7.43;4.87;;;;;;;17.91;100.00;99149.88;4949671;29;20200;-83
2022/05/22 07:21:42;;;;;;;8.87;4.57;;;;;;;18.07;100.00;99136.72;4951026;28;20216;-83
2022/05/22 07:24:10;;;;;;;9.53;4.97;;;;;;;17.91;100.00;99139.97;4955966;29;20711;-84
2022/05/22 07:26:41;;;;;;;7.10;4.57;;;;;;;17.89;100.00;99138.44;4946668;29;20264;-83
2022/05/22 07:29:10;;;;;;;7.43;4.30;;;;;;;18.11;100.00;99130.03;4953268;28;20232;-83
2022/05/22 07:31:40;;;;;;;8.60;4.40;;;;;;;18.19;100.00;99132.84;4971983;28;20217;-84
2022/05/22 07:34:09;;;;;;;7.47;4.17;;;;;;;18.54;100.00;99120.56;5055405;28;20192;-83
2022/05/22 07:36:39;;;;;;;9.27;4.30;;;;;;;18.29;100.00;99124.75;5050666;28;20193;-83
2022/05/22 07:39:08;;;;;;;9.53;4.00;;;;;;;18.62;100.00;99126.00;5049113;28;20289;-83
2022/05/22 07:41:36;;;;;;;7.87;4.30;;;;;;;18.70;100.00;99126.13;5052093;28;20212;-83
2022/05/22 07:44:07;;;;;;;8.07;4.40;;;;;;;18.91;100.00;99133.03;5053249;28;20197;-84
2022/05/22 07:46:35;;;;;;;9.03;4.70;;;;;;;18.67;100.00;99122.91;5053526;28;20253;-83
2022/05/22 07:49:04;;;;;;;8.30;4.17;;;;;;;18.63;100.00;99121.50;5055774;28;20201;-83
2022/05/22 07:51:32;;;;;;;8.90;4.47;;;;;;;18.85;100.00;99119.25;5054785;28;20221;-84
2022/05/22 07:54:00;;;;;;;9.60;4.30;;;;;;;18.56;100.00;99113.19;5052530;28;20201;-83
2022/05/22 07:56:29;;;;;;;9.23;4.20;;;;;;;18.67;100.00;99121.06;5050608;28;20193;-83
2022/05/22 07:58:59;;;;;;;10.00;4.23;;;;;;;19.08;100.00;99106.22;5054959;28;20224;-83
2022/05/22 08:01:29;;;;;;;9.53;4.57;;;;;;;18.77;100.00;99115.63;5051681;28;20193;-86
2022/05/22 08:03:58;;;;;;;10.03;4.50;;;;;;;18.90;100.00;99116.09;5046256;28;20233;-83
2022/05/22 08:06:26;;;;;;;9.10;4.17;;;;;;;18.62;100.00;99111.72;5053664;28;20201;-84
2022/05/22 08:08:55;;;;;;;8.40;4.13;;;;;;;18.97;100.00;99116.34;5050242;28;20197;-84
2022/05/22 08:11:24;;;;;;;8.90;4.00;;;;;;;19.03;100.00;99099.63;5053206;28;20216;-84
2022/05/22 08:13:52;;;;;;;6.33;3.67;;;;;;;19.21;100.00;99105.00;5055308;28;20201;-84
2022/05/22 08:16:20;;;;;;;8.93;4.30;;;;;;;19.36;100.00;99096.22;5055082;28;20299;-84
2022/05/22 08:18:50;;;;;;;10.33;4.07;;;;;;;19.11;100.00;99097.03;5054590;28;20239;-83
2022/05/22 08:21:18;;;;;;;7.83;3.67;;;;;;;19.24;100.00;99096.63;5053508;28;20253;-84
2022/05/22 08:23:47;;;;;;;7.83;3.73;;;;;;;19.60;100.00;99092.94;5049941;28;20193;-82
2022/05/22 08:26:15;;;;;;;7.17;3.30;;;;;;;19.59;100.00;99090.38;5034459;28;20201;-83
2022/05/22 08:28:43;;;;;;;6.23;3.60;;;;;;;19.96;100.00;99090.09;5047358;28;20224;-84
2022/05/22 08:31:14;;;;;;;10.53;3.53;;;;;;;19.72;100.00;99088.97;5051906;28;20240;-84
2022/05/22 08:33:42;;;;;;;9.17;3.33;;;;;;;19.85;100.00;99079.63;5054371;28;20200;-83
2022/05/22 08:36:12;;;;;;;7.53;3.00;;;;;;;19.91;100.00;99069.09;5048980;28;20280;-83
2022/05/22 08:38:44;;;;;;;7.83;3.40;;;;;;;19.98;100.00;99072.84;5051000;28;20189;-83
2022/05/22 08:41:20;;;;;;;8.13;3.10;;;;;;;19.81;93.84;99081.81;5051873;28;20197;-84
2022/05/22 08:43:57;;;;;;;12.17;2.87;;;;;;;20.12;91.47;99068.69;5052229;28;20201;-84
2022/05/22 08:46:33;;;;;;;9.00;4.37;;;;;;;20.49;90.13;99072.91;5051853;28;20711;-84
2022/05/22 08:49:11;;;;;;;9.90;2.60;;;;;;;20.57;83.35;99065.69;5047787;28;20209;-83
2022/05/22 08:51:45;;;;;;;8.93;3.03;;;;;;;20.90;79.21;99071.13;5050299;28;20217;-84
2022/05/22 08:54:24;;;;;;;8.53;2.60;;;;;;;20.98;75.48;99060.38;5054102;28;20276;-84
2022/05/22 08:59:53;;;;;;;5.93;3.27;;;;;;;20.95;78.66;99052.66;5008371;28;20277;-83
2022/05/22 09:02:34;;;;;;;6.70;3.40;;;;;;;21.02;80.16;99055.50;5039333;28;20194;-83
2022/05/22 09:05:08;;;;;;;10.53;3.67;;;;;;;21.22;78.81;99050.59;5050324;28;20225;-82
2022/05/22 09:07:49;;;;;;;10.37;4.37;;;;;;;21.07;77.06;99053.16;5048924;28;20694;-83
2022/05/22 09:10:20;;;;;;;8.47;4.40;;;;;;;21.03;79.02;99049.94;5053674;28;20196;-83
2022/05/22 09:13:10;;;;;;;7.97;3.90;;;;;;;21.30;81.13;99040.72;5052269;28;20196;-83
2022/05/22 09:16:06;;;;;;;9.13;4.50;;;;;;;20.89;85.20;99045.22;5053236;28;20208;-84
2022/05/22 09:18:38;;;;;;;13.57;4.13;;;;;;;20.49;86.43;99043.31;5053484;28;20193;-83
2022/05/22 09:21:16;;;;;;;6.33;3.93;;;;;;;20.21;89.32;99048.06;5052864;28;20243;-82
2022/05/22 09:24:04;;;;;;;6.10;3.17;;;;;;;20.34;94.75;99044.88;5050500;28;20208;-84
2022/05/22 09:26:44;;;;;;;6.70;3.80;;;;;;;20.50;91.89;99037.75;5053338;28;20201;-84
2022/05/22 09:29:45;;;;;;;6.83;3.50;;;;;;;19.93;94.83;99034.81;5045937;28;20220;-83
2022/05/22 09:32:27;;;;;;;5.20;3.30;;;;;;;20.72;90.45;99030.88;5051474;28;20236;-83
2022/05/22 09:35:05;;;;;;;6.33;3.37;;;;;;;21.13;87.35;99033.59;5053345;28;20644;-83
2022/05/22 09:37:45;;;;;;;8.57;3.43;;;;;;;20.81;87.36;99031.75;5047070;28;20201;-83
2022/05/22 09:40:27;;;;;;;9.57;3.20;;;;;;;21.42;83.11;99028.59;5053115;28;20193;-83
2022/05/22 09:43:23;;;;;;;5.05;2.85;;;;;;;21.92;78.82;99029.31;5051138;28;20227;-83
2022/05/22 09:46:04;;;;;;;5.93;2.53;;;;;;;22.46;75.95;99022.16;5053087;28;20224;-83
2022/05/22 09:48:59;;;;;;;6.63;2.97;;;;;;;22.47;77.08;99018.44;5049100;28;20304;-82
2022/05/22 09:51:36;;;;;;;6.47;2.45;;;;;;;23.03;72.99;99004.75;5047993;28;20562;-83
2022/05/22 09:54:28;;;;;;;6.60;2.78;;;;;;;22.96;73.12;99001.94;4961248;28;20274;-83
2022/05/22 09:57:28;;;;;;;6.90;2.40;;;;;;;23.18;69.90;99007.53;4991965;28;20698;-83
2022/05/22 10:00:04;;;;;;;5.90;2.75;;;;;;;23.34;69.56;98999.22;4988522;28;20206;-82
2022/05/22 10:02:45;;;;;;;7.53;2.88;;;;;;;22.46;74.94;99005.13;4991841;28;20194;-83
2022/05/22 10:05:27;;;;;;;4.50;2.00;;;;;;;22.81;70.12;99006.44;4991519;28;20681;-83
2022/05/22 10:08:04;;;;;;;8.23;2.40;;;;;;;23.17;67.45;99009.38;4988627;28;20195;-82
2022/05/22 10:10:40;;;;;;;6.18;2.67;;;;;;;23.54;68.50;99010.34;4991706;28;20338;-83
2022/05/22 10:13:19;;;;;;;6.47;2.90;;;;;;;23.85;68.51;99002.13;5040815;28;20216;-82
2022/05/22 10:15:57;;;;;;;5.88;2.47;;;;;;;23.70;67.60;98999.41;5049119;28;20272;-82
2022/05/22 10:18:50;;;;;;;8.35;3.85;;;;;;;23.96;71.70;98999.78;5050135;28;20212;-81
2022/05/22 10:21:26;;;;;;;11.13;5.15;;;;;;;24.05;73.76;99002.41;5051850;28;20220;-82
2022/05/22 10:24:15;;;;;;;13.13;6.95;;;;;;;24.33;66.41;98999.88;5049776;28;20200;-82
2022/05/22 10:27:00;;;;;;;6.15;2.92;;;;;;;23.92;64.72;99001.16;5051078;28;20193;-83
2022/05/22 10:29:37;;;;;;;11.07;4.97;;;;;;;24.27;63.34;99004.13;5056017;28;20308;-83
2022/05/22 10:32:13;;;;;;;10.60;3.53;;;;;;;24.47;62.41;98998.97;5052738;28;20255;-82
2022/05/22 10:34:47;;;;;;;5.53;2.83;;;;;;;23.29;65.90;99001.66;5049867;28;20201;-83
2022/05/22 10:37:26;;;;;;;7.05;2.90;;;;;;;23.88;63.44;98994.47;5052802;28;20399;-82
2022/05/22 10:39:58;;;;;;;9.15;2.70;;;;;;;23.56;65.81;98995.66;5053306;28;20196;-82
2022/05/22 10:42:46;;;;;;;8.07;2.80;;;;;;;23.98;62.60;98986.91;5048015;28;20245;-83
2022/05/22 10:45:21;;;;;;;4.45;2.42;;;;;;;24.62;59.25;98982.69;5052257;28;20228;-83
2022/05/22 10:47:50;;;;;;;5.40;2.30;;;;;;;24.68;58.66;98977.31;5051767;28;20197;-82
2022/05/22 10:50:23;;;;;;;6.72;2.50;;;;;;;24.89;57.27;98976.47;5056134;28;20663;-83
2022/05/22 10:52:52;;;;;;;3.35;1.95;;;;;;;25.14;56.30;98973.38;5051082;28;20213;-82
2022/05/22 10:55:33;;;;;;;5.93;2.40;;;;;;;25.16;55.39;98976.75;5055944;28;20203;-82
2022/05/22 10:58:04;;;;;;;5.07;2.63;;;;;;;24.44;58.45;98985.81;5056086;28;20188;-82
2022/05/22 11:00:34;;;;;;;8.55;3.20;;;;;;;24.45;59.43;98982.06;5056077;28;20275;-82
2022/05/22 11:03:12;;;;;;;6.47;2.80;;;;;;;24.75;59.80;98978.22;5051280;28;20208;-83
2022/05/22 11:05:51;;;;;;;4.97;1.80;;;;;;;24.28;55.42;98976.00;5051339;28;20200;-82
2022/05/22 11:08:31;;;;;;;4.47;1.90;;;;;;;24.19;52.13;98983.41;5054620;28;20648;-82
2022/05/22 11:11:13;;;;;;;4.78;2.10;;;;;;;23.56;53.62;98976.72;5054401;28;20193;-83
2022/05/22 11:13:42;;;;;;;5.32;2.00;;;;;;;23.42;57.95;98975.66;5051578;28;20225;-82
2022/05/22 11:16:18;;;;;;;4.05;2.05;;;;;;;23.21;60.25;98977.41;5055700;28;20247;-83
2022/05/22 11:18:47;;;;;;;4.68;2.25;;;;;;;23.06;60.83;98974.66;5055845;28;20200;-82
2022/05/22 11:21:26;;;;;;;4.28;1.92;;;;;;;23.18;56.95;98972.38;5049823;28;20185;-83
2022/05/22 11:24:09;;;;;;;4.13;1.83;;;;;;;23.08;58.23;98964.53;5052406;28;20691;-83
2022/05/22 11:26:48;;;;;;;4.82;2.47;;;;;;;23.19;61.19;98961.38;5049996;28;20754;-83
2022/05/22 11:29:41;;;;;;;5.25;2.45;;;;;;;23.29;59.48;98947.59;5051737;28;20224;-83
2022/05/22 11:32:24;;;;;;;3.50;2.00;;;;;;;23.34;57.54;98953.28;5053899;28;20215;-83
2022/05/22 11:35:10;;;;;;;4.75;2.00;;;;;;;23.61;57.25;98932.91;5055583;28;20189;-83
2022/05/22 11:37:50;;;;;;;3.60;2.08;;;;;;;23.79;56.54;98932.53;5049084;28;20200;-83
2022/05/22 11:40:29;;;;;;;3.88;2.15;;;;;;;23.80;56.80;98935.03;5052340;28;20196;-83
2022/05/22 11:43:08;;;;;;;5.35;2.10;;;;;;;24.47;56.77;98918.56;5054752;28;20196;-82
2022/05/22 11:45:45;;;;;;;4.50;2.35;;;;;;;24.24;56.64;98924.13;5054958;28;20212;-82
2022/05/22 11:49:04;;;;;;;4.47;2.30;;;;;;;24.99;55.79;98919.22;5051120;28;20203;-81
2022/05/22 11:51:52;;;;;;;5.47;2.15;;;;;;;25.10;53.81;98922.28;5050922;28;20272;-82
2022/05/22 11:54:48;;;;;;;3.00;1.90;;;;;;;25.08;50.14;98918.06;5054872;28;20208;-82
2022/05/22 11:57:36;;;;;;;3.63;2.08;;;;;;;23.69;54.35;98911.19;5055025;28;20189;-82
2022/05/22 12:00:14;;;;;;;4.07;1.95;;;;;;;23.47;54.50;98917.50;5054902;28;20197;-82
2022/05/22 12:02:56;;;;;;;5.07;2.20;;;;;;;23.91;53.11;98906.66;5051365;28;20280;-82
2022/05/22 12:05:34;;;;;;;5.00;2.25;;;;;;;23.85;55.05;98905.56;5052218;28;20185;-82